createdAt,value
2018-05-08T00:02:01.543Z,12.20
2018-05-08T00:04:29.170Z,12.20
2018-05-08T00:06:56.882Z,12.20
2018-05-08T00:09:24.548Z,12.20
2018-05-08T00:11:52.182Z,12.20
2018-05-08T00:14:19.839Z,12.20
2018-05-08T00:16:47.466Z,12.20
2018-05-08T00:19:15.936Z,12.10
2018-05-08T00:21:44.420Z,12.10
2018-05-08T00:24:12.861Z,12.10
2018-05-08T00:26:40.562Z,12.00
2018-05-08T00:29:09.054Z,12.00
2018-05-08T00:31:36.752Z,12.00
2018-05-08T00:34:04.426Z,12.00
2018-05-08T00:36:32.945Z,12.00
2018-05-08T00:39:01.422Z,12.00
2018-05-08T00:41:29.865Z,12.00
2018-05-08T00:43:57.573Z,12.00
2018-05-08T00:46:26.010Z,12.00
2018-05-08T00:48:53.687Z,12.00
2018-05-08T00:51:21.393Z,12.10
2018-05-08T00:53:49.065Z,12.00
2018-05-08T00:56:16.773Z,12.00
2018-05-08T00:58:44.509Z,12.00
2018-05-08T01:01:12.209Z,12.00
2018-05-08T01:03:40.648Z,12.10
2018-05-08T01:06:08.351Z,12.00
2018-05-08T01:08:36.813Z,12.10
2018-05-08T01:11:04.501Z,12.00
2018-05-08T01:13:32.977Z,12.00
2018-05-08T01:16:01.446Z,12.00
2018-05-08T01:18:29.924Z,12.00
2018-05-08T01:20:57.629Z,11.90
2018-05-08T01:23:25.305Z,12.00
2018-05-08T01:25:53.005Z,11.90
2018-05-08T01:28:20.721Z,12.00
2018-05-08T01:30:48.457Z,12.00
2018-05-08T01:33:16.156Z,12.00
2018-05-08T01:35:43.931Z,12.00
2018-05-08T01:38:11.601Z,12.00
2018-05-08T01:40:39.285Z,11.90
2018-05-08T01:43:07.787Z,11.90
2018-05-08T01:45:35.468Z,11.80
2018-05-08T01:48:03.150Z,11.90
2018-05-08T01:50:30.853Z,11.80
2018-05-08T01:52:59.298Z,11.80
2018-05-08T01:55:27.005Z,11.70
2018-05-08T01:57:55.478Z,11.80
2018-05-08T02:00:23.941Z,11.80
2018-05-08T02:02:51.621Z,11.70
2018-05-08T02:05:20.113Z,11.70
2018-05-08T02:07:47.833Z,11.70
2018-05-08T02:10:15.517Z,11.80
2018-05-08T02:12:44.013Z,11.80
2018-05-08T02:15:11.695Z,11.70
2018-05-08T02:17:39.369Z,11.80
2018-05-08T02:20:07.078Z,11.80
2018-05-08T02:22:35.518Z,11.70
2018-05-08T02:25:04.013Z,11.70
2018-05-08T02:27:31.719Z,11.60
2018-05-08T02:29:59.420Z,11.60
2018-05-08T02:32:27.097Z,11.60
2018-05-08T02:34:54.802Z,11.50
2018-05-08T02:37:23.273Z,11.50
2018-05-08T02:39:51.709Z,11.50
2018-05-08T02:42:19.469Z,11.40
2018-05-08T02:44:47.156Z,11.40
2018-05-08T02:47:14.870Z,11.30
2018-05-08T02:49:42.597Z,11.30
2018-05-08T02:52:11.038Z,11.20
2018-05-08T02:54:39.506Z,11.20
2018-05-08T02:57:07.221Z,11.10
2018-05-08T02:59:35.682Z,11.10
2018-05-08T03:02:03.369Z,11.00
2018-05-08T03:04:31.857Z,11.00
2018-05-08T03:06:59.504Z,10.90
2018-05-08T03:09:27.911Z,10.90
2018-05-08T03:11:55.579Z,10.80
2018-05-08T03:14:23.266Z,10.90
2018-05-08T03:16:50.977Z,11.00
2018-05-08T03:19:19.449Z,11.10
2018-05-08T03:21:47.889Z,11.20
2018-05-08T03:24:15.622Z,11.10
2018-05-08T03:26:43.333Z,11.30
2018-05-08T03:29:11.028Z,11.30
2018-05-08T03:31:38.704Z,11.40
2018-05-08T03:34:06.413Z,11.40
2018-05-08T03:36:34.086Z,11.40
2018-05-08T03:39:02.553Z,11.40
2018-05-08T03:41:30.253Z,11.40
2018-05-08T03:43:57.929Z,11.50
2018-05-08T03:46:25.625Z,11.60
2018-05-08T03:48:53.340Z,11.60
2018-05-08T03:51:21.906Z,11.50
2018-05-08T03:53:50.373Z,11.70
2018-05-08T03:56:18.897Z,11.80
2018-05-08T03:58:46.593Z,11.80
2018-05-08T04:01:26.139Z,12.00
2018-05-08T04:04:05.750Z,12.20
2018-05-08T04:06:55.833Z,12.30
2018-05-08T04:09:23.545Z,12.50
2018-05-08T04:11:51.997Z,12.80
2018-05-08T04:14:19.702Z,12.70
2018-05-08T04:16:48.179Z,12.90
2018-05-08T04:19:16.617Z,13.00
2018-05-08T04:21:44.368Z,13.00
2018-05-08T04:24:12.045Z,13.10
2018-05-08T04:26:39.717Z,13.20
2018-05-08T04:29:07.425Z,13.40
2018-05-08T04:31:35.110Z,13.50
2018-05-08T04:34:02.815Z,13.70
2018-05-08T04:36:31.482Z,13.90
2018-05-08T04:38:59.131Z,13.90
2018-05-08T04:41:26.851Z,14.00
2018-05-08T04:43:54.555Z,14.20
2018-05-08T04:46:23.046Z,14.40
2018-05-08T04:48:51.513Z,14.50
2018-05-08T04:51:19.227Z,14.40
2018-05-08T04:53:47.669Z,14.70
2018-05-08T04:56:15.371Z,14.60
2018-05-08T04:58:43.078Z,14.80
2018-05-08T05:01:10.782Z,15.00
2018-05-08T05:03:39.234Z,15.30
2018-05-08T05:06:06.948Z,15.20
2018-05-08T05:08:34.653Z,15.40
2018-05-08T05:11:02.380Z,15.60
2018-05-08T05:13:30.166Z,15.70
2018-05-08T05:15:57.865Z,15.90
2018-05-08T05:18:26.313Z,16.10
2018-05-08T05:20:54.043Z,16.10
2018-05-08T05:23:21.733Z,16.30
2018-05-08T05:25:49.409Z,16.40
2018-05-08T05:28:17.113Z,16.50
2018-05-08T05:30:44.785Z,16.60
2018-05-08T05:33:12.482Z,16.80
2018-05-08T05:35:40.201Z,16.80
2018-05-08T05:38:07.881Z,16.90
2018-05-08T05:40:35.598Z,17.00
2018-05-08T05:43:04.093Z,17.30
2018-05-08T05:45:32.577Z,17.40
2018-05-08T05:48:00.249Z,17.40
2018-05-08T05:50:27.953Z,17.50
2018-05-08T05:52:55.657Z,17.50
2018-05-08T05:55:24.093Z,17.80
2018-05-08T05:57:51.795Z,17.70
2018-05-08T06:00:20.232Z,17.90
2018-05-08T06:02:47.936Z,17.90
2018-05-08T06:05:16.424Z,18.30
2018-05-08T06:07:44.895Z,18.30
2018-05-08T06:10:13.338Z,18.50
2018-05-08T06:12:41.043Z,18.40
2018-05-08T06:15:09.511Z,18.80
2018-05-08T06:17:37.949Z,18.80
2018-05-08T06:20:05.665Z,18.80
2018-05-08T06:22:34.116Z,18.90
2018-05-08T06:25:01.827Z,18.80
2018-05-08T06:27:29.533Z,19.00
2018-05-08T06:29:57.241Z,19.00
2018-05-08T06:32:24.938Z,19.10
2018-05-08T06:34:52.708Z,19.20
2018-05-08T06:37:20.385Z,19.20
2018-05-08T06:39:48.075Z,19.30
2018-05-08T06:42:16.581Z,19.40
2018-05-08T06:44:44.257Z,19.40
2018-05-08T06:47:11.930Z,19.50
2018-05-08T06:49:39.672Z,19.70
2018-05-08T06:52:07.345Z,19.50
2018-05-08T06:54:35.040Z,19.60
2018-05-08T06:57:03.637Z,19.60
2018-05-08T06:59:32.177Z,19.50
2018-05-08T07:01:59.893Z,19.40
2018-05-08T07:04:28.414Z,19.50
2018-05-08T07:06:56.090Z,19.40
2018-05-08T07:09:23.792Z,19.60
2018-05-08T07:11:52.268Z,19.60
2018-05-08T07:14:20.721Z,20.00
2018-05-08T07:16:48.417Z,19.90
2018-05-08T07:19:16.125Z,20.10
2018-05-08T07:21:43.801Z,20.30
2018-05-08T07:24:11.517Z,20.50
2018-05-08T07:26:39.226Z,20.50
2018-05-08T07:29:06.926Z,20.30
2018-05-08T07:31:35.373Z,20.20
2018-05-08T07:34:03.078Z,20.10
2018-05-08T07:36:30.784Z,20.30
2018-05-08T07:38:58.461Z,20.10
2018-05-08T07:41:26.223Z,20.00
2018-05-08T07:43:53.897Z,20.20
2018-05-08T07:46:22.349Z,19.90
2018-05-08T07:48:50.049Z,19.90
2018-05-08T07:51:18.493Z,19.70
2018-05-08T07:53:46.975Z,19.60
2018-05-08T07:56:14.685Z,19.60
2018-05-08T07:58:42.365Z,19.20
2018-05-08T08:01:10.062Z,18.90
2018-05-08T08:03:37.789Z,18.80
2018-05-08T08:06:05.525Z,18.80
2018-05-08T08:08:33.197Z,19.00
2018-05-08T08:11:00.897Z,19.00
2018-05-08T08:13:28.593Z,19.00
2018-05-08T08:15:57.033Z,19.20
2018-05-08T08:18:24.788Z,19.20
2018-05-08T08:20:52.458Z,19.50
2018-05-08T08:23:20.130Z,19.60
2018-05-08T08:25:47.833Z,19.70
2018-05-08T08:28:16.269Z,20.60
2018-05-08T08:30:43.969Z,20.50
2018-05-08T08:33:12.441Z,20.80
2018-05-08T08:35:40.881Z,21.60
2018-05-08T08:38:08.583Z,21.50
2018-05-08T08:40:37.097Z,22.70
2018-05-08T08:43:04.793Z,22.60
2018-05-08T08:45:32.477Z,22.30
2018-05-08T08:48:00.969Z,22.60
2018-05-08T08:50:29.410Z,22.40
2018-05-08T08:52:57.121Z,22.40
2018-05-08T08:55:25.593Z,22.40
2018-05-08T08:57:54.032Z,22.80
2018-05-08T09:00:21.733Z,22.70
2018-05-08T09:02:50.225Z,23.00
2018-05-08T09:05:17.912Z,22.90
2018-05-08T09:07:45.612Z,23.30
2018-05-08T09:10:13.333Z,23.10
2018-05-08T09:12:41.022Z,23.20
2018-05-08T09:15:08.763Z,22.80
2018-05-08T09:17:36.466Z,23.10
2018-05-08T09:20:04.193Z,23.10
2018-05-08T09:22:31.873Z,23.50
2018-05-08T09:24:59.585Z,23.30
2018-05-08T09:27:27.313Z,23.60
2018-05-08T09:29:54.991Z,23.40
2018-05-08T09:32:23.502Z,22.40
2018-05-08T09:34:51.191Z,22.30
2018-05-08T09:37:18.873Z,21.80
2018-05-08T09:39:46.581Z,21.40
2018-05-08T09:42:14.259Z,21.40
2018-05-08T09:44:41.961Z,21.30
2018-05-08T09:47:09.703Z,21.30
2018-05-08T09:49:37.385Z,21.30
2018-05-08T09:52:05.081Z,21.60
2018-05-08T09:54:32.816Z,21.50
2018-05-08T09:57:00.522Z,21.50
2018-05-08T09:59:28.216Z,21.50
2018-05-08T10:01:55.933Z,21.60
2018-05-08T10:04:23.633Z,21.70
2018-05-08T10:06:51.304Z,22.00
2018-05-08T10:09:19.033Z,21.60
2018-05-08T10:11:46.723Z,21.40
2018-05-08T10:14:14.393Z,21.90
2018-05-08T10:16:42.148Z,21.80
2018-05-08T10:19:09.846Z,22.10
2018-05-08T10:21:38.327Z,21.70
2018-05-08T10:24:06.818Z,22.10
2018-05-08T10:26:34.496Z,22.10
2018-05-08T10:29:02.197Z,22.40
2018-05-08T10:31:29.946Z,22.70
2018-05-08T10:33:57.649Z,22.60
2018-05-08T10:36:26.113Z,21.90
2018-05-08T10:38:53.837Z,21.80
2018-05-08T10:41:21.537Z,21.90
2018-05-08T10:43:49.210Z,21.30
2018-05-08T10:46:16.911Z,21.20
2018-05-08T10:48:44.617Z,21.10
2018-05-08T10:51:12.297Z,21.00
2018-05-08T10:53:40.814Z,22.10
2018-05-08T10:56:08.488Z,22.00
2018-05-08T10:58:36.164Z,22.30
2018-05-08T11:01:04.636Z,21.40
2018-05-08T11:03:32.313Z,21.40
2018-05-08T11:06:00.018Z,21.80
2018-05-08T11:08:28.493Z,22.30
2018-05-08T11:10:56.965Z,22.40
2018-05-08T11:13:25.461Z,22.30
2018-05-08T11:15:53.925Z,22.00
2018-05-08T11:18:22.393Z,22.20
2018-05-08T11:20:50.068Z,22.10
2018-05-08T11:23:18.541Z,21.70
2018-05-08T11:25:47.094Z,21.60
2018-05-08T11:28:14.781Z,21.60
2018-05-08T11:30:42.494Z,22.00
2018-05-08T11:33:10.169Z,22.20
2018-05-08T11:35:37.877Z,21.70
2018-05-08T11:38:06.365Z,22.50
2018-05-08T11:40:34.819Z,23.10
2018-05-08T11:43:02.532Z,23.10
2018-05-08T11:45:30.257Z,23.10
2018-05-08T11:47:58.725Z,23.80
2018-05-08T11:50:26.405Z,23.70
2018-05-08T11:52:54.875Z,24.10
2018-05-08T11:55:23.367Z,23.90
2018-05-08T11:57:51.049Z,23.80
2018-05-08T12:00:18.790Z,23.50
2018-05-08T12:02:47.234Z,23.40
2018-05-08T12:05:14.907Z,23.30
2018-05-08T12:07:42.609Z,23.20
2018-05-08T12:10:10.281Z,23.50
2018-05-08T12:12:37.973Z,23.80
2018-05-08T12:15:05.682Z,23.50
2018-05-08T12:17:34.121Z,25.50
2018-05-08T12:20:01.825Z,25.40
2018-05-08T12:22:30.290Z,25.20
2018-05-08T12:24:58.768Z,25.10
2018-05-08T12:27:27.210Z,25.10
2018-05-08T12:29:54.926Z,25.00
2018-05-08T12:32:23.393Z,25.00
2018-05-08T12:34:51.833Z,26.00
2018-05-08T12:37:19.554Z,26.00
2018-05-08T12:39:47.251Z,26.10
2018-05-08T12:42:14.945Z,25.90
2018-05-08T12:44:42.721Z,25.90
2018-05-08T12:47:11.185Z,26.10
2018-05-08T12:49:38.879Z,26.00
2018-05-08T12:52:06.590Z,26.00
2018-05-08T12:54:34.297Z,25.90
2018-05-08T12:57:02.738Z,26.20
2018-05-08T12:59:30.478Z,26.10
2018-05-08T13:01:58.150Z,27.40
2018-05-08T13:04:25.821Z,27.10
2018-05-08T13:06:53.523Z,26.80
2018-05-08T13:09:21.206Z,26.00
2018-05-08T13:11:48.913Z,25.60
2018-05-08T13:14:16.642Z,26.00
2018-05-08T13:16:44.324Z,25.70
2018-05-08T13:19:12.021Z,25.00
2018-05-08T13:21:40.498Z,27.00
2018-05-08T13:24:09.045Z,27.50
2018-05-08T13:26:36.702Z,27.40
2018-05-08T13:29:04.450Z,27.30
2018-05-08T13:31:32.129Z,28.40
2018-05-08T13:33:59.825Z,30.70
2018-05-08T13:36:28.314Z,28.60
2018-05-08T13:38:56.767Z,29.30
2018-05-08T13:41:24.476Z,29.20
2018-05-08T13:43:52.246Z,28.90
2018-05-08T13:46:19.924Z,29.10
2018-05-08T13:48:47.638Z,29.60
2018-05-08T13:51:16.118Z,29.60
2018-05-08T13:53:44.593Z,30.10
2018-05-08T13:56:13.036Z,28.90
2018-05-08T13:58:40.761Z,28.80
2018-05-08T14:01:08.479Z,28.90
2018-05-08T14:03:36.161Z,28.40
2018-05-08T14:06:04.697Z,30.40
2018-05-08T14:08:32.382Z,30.40
2018-05-08T14:11:00.065Z,30.80
2018-05-08T14:13:28.562Z,30.40
2018-05-08T14:15:56.304Z,30.40
2018-05-08T14:18:23.966Z,29.30
2018-05-08T14:20:52.491Z,28.00
2018-05-08T14:23:20.174Z,27.90
2018-05-08T14:25:47.877Z,27.10
2018-05-08T14:28:16.349Z,27.40
2018-05-08T14:30:44.801Z,29.00
2018-05-08T14:33:12.506Z,28.90
2018-05-08T14:35:40.222Z,28.10
2018-05-08T14:38:07.921Z,28.00
2018-05-08T14:40:36.370Z,27.80
2018-05-08T14:43:04.094Z,27.70
2018-05-08T14:45:31.807Z,28.10
2018-05-08T14:47:59.496Z,27.60
2018-05-08T14:50:27.244Z,28.50
2018-05-08T14:52:55.717Z,26.60
2018-05-08T14:55:23.397Z,26.50
2018-05-08T14:57:51.870Z,27.00
2018-05-08T15:00:20.318Z,27.60
2018-05-08T15:02:48.023Z,27.50
2018-05-08T15:05:15.733Z,28.30
2018-05-08T15:07:43.438Z,28.70
2018-05-08T15:10:11.909Z,28.60
2018-05-08T15:12:40.392Z,28.20
2018-05-08T15:15:08.856Z,28.70
2018-05-08T15:17:36.550Z,28.60
2018-05-08T15:20:04.285Z,28.90
2018-05-08T15:22:31.961Z,28.00
2018-05-08T15:25:00.461Z,26.70
2018-05-08T15:27:28.182Z,26.60
2018-05-08T15:29:55.874Z,27.90
2018-05-08T15:32:24.342Z,26.30
2018-05-08T15:34:52.822Z,26.90
2018-05-08T15:37:21.301Z,27.40
2018-05-08T15:39:49.746Z,27.20
2018-05-08T15:42:17.446Z,27.10
2018-05-08T15:44:45.939Z,28.50
2018-05-08T15:47:13.624Z,28.50
2018-05-08T15:49:41.390Z,28.90
2018-05-08T15:52:09.113Z,28.10
2018-05-08T15:54:37.569Z,27.60
2018-05-08T15:57:05.277Z,27.50
2018-05-08T15:59:32.962Z,26.90
2018-05-08T16:02:00.701Z,27.00
2018-05-08T16:04:28.465Z,26.90
2018-05-08T16:06:56.185Z,27.00
2018-05-08T16:09:23.878Z,27.00
2018-05-08T16:11:51.582Z,28.40
2018-05-08T16:14:19.289Z,29.70
2018-05-08T16:16:47.734Z,29.30
2018-05-08T16:19:15.443Z,29.20
2018-05-08T16:21:43.130Z,29.00
2018-05-08T16:24:10.829Z,28.80
2018-05-08T16:26:38.539Z,28.50
2018-05-08T16:29:06.241Z,28.80
2018-05-08T16:31:33.949Z,28.20
2018-05-08T16:34:01.661Z,26.70
2018-05-08T16:36:29.370Z,27.30
2018-05-08T16:38:57.818Z,29.10
2018-05-08T16:41:25.531Z,29.00
2018-05-08T16:43:53.237Z,30.10
2018-05-08T16:46:20.922Z,29.70
2018-05-08T16:48:49.397Z,27.40
2018-05-08T16:51:17.846Z,26.50
2018-05-08T16:53:45.541Z,26.40
2018-05-08T16:56:14.018Z,27.30
2018-05-08T16:58:42.466Z,27.00
2018-05-08T17:01:10.170Z,27.00
2018-05-08T17:03:38.645Z,25.60
2018-05-08T17:06:07.090Z,25.20
2018-05-08T17:08:34.797Z,25.10
2018-05-08T17:11:02.510Z,25.90
2018-05-08T17:13:30.981Z,25.70
2018-05-08T17:15:58.657Z,25.70
2018-05-08T17:18:26.394Z,26.00
2018-05-08T17:20:54.068Z,26.30
2018-05-08T17:23:21.742Z,26.20
2018-05-08T17:25:49.462Z,25.10
2018-05-08T17:28:17.150Z,25.10
2018-05-08T17:30:44.866Z,24.60
2018-05-08T17:33:13.341Z,22.90
2018-05-08T17:35:41.789Z,22.10
2018-05-08T17:38:09.492Z,22.00
2018-05-08T17:40:37.962Z,21.00
2018-05-08T17:43:06.439Z,20.70
2018-05-08T17:45:34.902Z,20.70
2018-05-08T17:48:02.615Z,20.70
2018-05-08T17:50:30.315Z,20.60
2018-05-08T17:52:57.986Z,20.00
2018-05-08T17:55:25.737Z,19.70
2018-05-08T17:57:54.251Z,19.10
2018-05-08T18:00:22.697Z,18.90
2018-05-08T18:02:51.179Z,18.60
2018-05-08T18:05:18.872Z,18.50
2018-05-08T18:07:47.333Z,18.50
2018-05-08T18:10:15.049Z,18.50
2018-05-08T18:12:42.782Z,18.50
2018-05-08T18:15:11.252Z,18.60
2018-05-08T18:17:39.784Z,18.60
2018-05-08T18:20:08.245Z,18.50
2018-05-08T18:22:35.961Z,18.40
2018-05-08T18:25:03.770Z,18.40
2018-05-08T18:27:31.469Z,18.30
2018-05-08T18:29:59.152Z,18.20
2018-05-08T18:32:26.904Z,18.00
2018-05-08T18:34:54.597Z,18.00
2018-05-08T18:37:23.071Z,17.80
2018-05-08T18:39:51.548Z,17.70
2018-05-08T18:42:20.034Z,17.60
2018-05-08T18:44:48.563Z,17.50
2018-05-08T18:47:16.270Z,17.40
2018-05-08T18:49:44.868Z,17.20
2018-05-08T18:52:12.461Z,17.20
2018-05-08T18:54:40.187Z,17.20
2018-05-08T18:57:07.906Z,17.10
2018-05-08T18:59:35.639Z,16.90
2018-05-08T19:02:03.525Z,16.90
2018-05-08T19:04:31.230Z,16.80
2018-05-08T19:06:59.713Z,16.80
2018-05-08T19:09:27.497Z,16.70
2018-05-08T19:11:55.925Z,16.60
2018-05-08T19:14:23.633Z,16.50
2018-05-08T19:16:51.368Z,16.40
2018-05-08T19:19:25.566Z,16.20
2018-05-08T19:21:53.293Z,16.20
2018-05-08T19:24:26.706Z,16.20
2018-05-08T19:26:54.410Z,16.10
2018-05-08T19:29:28.625Z,15.90
2018-05-08T19:31:57.182Z,15.80
2018-05-08T19:34:39.758Z,15.70
2018-05-08T19:37:13.058Z,15.70
2018-05-08T19:39:40.766Z,15.50
2018-05-08T19:42:09.207Z,14.70
2018-05-08T19:44:36.953Z,15.30
2018-05-08T19:47:04.657Z,15.30
2018-05-08T19:49:32.333Z,15.20
2018-05-08T19:52:00.821Z,15.10
2018-05-08T19:54:29.265Z,15.00
2018-05-08T19:56:56.973Z,14.90
2018-05-08T19:59:24.678Z,14.90
2018-05-08T20:01:52.377Z,14.70
2018-05-08T20:04:20.858Z,14.60
2018-05-08T20:06:49.341Z,14.50
2018-05-08T20:09:17.778Z,14.50
2018-05-08T20:11:45.482Z,14.40
2018-05-08T20:14:13.973Z,14.40
2018-05-08T20:16:42.457Z,14.20
2018-05-08T20:19:10.137Z,14.20
2018-05-08T20:21:37.902Z,14.00
2018-05-08T20:24:05.604Z,14.00
2018-05-08T20:26:33.293Z,13.90
2018-05-08T20:29:01.769Z,13.60
2018-05-08T20:31:30.223Z,13.50
2018-05-08T20:33:57.929Z,13.50
2018-05-08T20:36:25.724Z,13.50
2018-05-08T20:38:54.122Z,13.40
2018-05-08T20:41:21.827Z,13.30
2018-05-08T20:43:49.533Z,13.40
2018-05-08T20:46:17.238Z,13.40
2018-05-08T20:48:45.682Z,13.30
2018-05-08T20:51:13.397Z,13.20
2018-05-08T20:53:41.115Z,13.20
2018-05-08T20:56:08.830Z,13.20
2018-05-08T20:58:36.646Z,13.10
2018-05-08T21:01:04.346Z,13.00
2018-05-08T21:03:32.044Z,13.10
2018-05-08T21:05:59.753Z,13.00
2018-05-08T21:08:28.189Z,12.90
2018-05-08T21:10:55.889Z,12.80
2018-05-08T21:13:24.366Z,12.80
2018-05-08T21:15:52.833Z,12.80
2018-05-08T21:18:20.512Z,12.80
2018-05-08T21:20:48.996Z,12.80
2018-05-08T21:23:17.476Z,12.80
2018-05-08T21:25:45.917Z,12.90
2018-05-08T21:28:19.411Z,12.80
2018-05-08T21:31:02.917Z,12.90
2018-05-08T21:33:30.617Z,12.90
2018-05-08T21:35:58.301Z,12.90
2018-05-08T21:38:26.761Z,12.90
2018-05-08T21:40:54.466Z,12.80
2018-05-08T21:43:22.168Z,12.90
2018-05-08T21:45:49.849Z,12.80
2018-05-08T21:48:17.563Z,12.80
2018-05-08T21:50:45.266Z,12.70
2018-05-08T21:53:12.949Z,12.70
2018-05-08T21:55:41.434Z,12.70
2018-05-08T21:58:09.879Z,12.70
2018-05-08T22:00:38.349Z,12.70
2018-05-08T22:03:06.056Z,12.60
2018-05-08T22:05:34.497Z,12.60
2018-05-08T22:08:02.200Z,12.50
2018-05-08T22:10:30.673Z,12.60
2018-05-08T22:12:59.141Z,12.60
2018-05-08T22:15:27.594Z,12.50
2018-05-08T22:17:55.297Z,12.40
2018-05-08T22:20:23.843Z,12.40
2018-05-08T22:22:51.499Z,12.40
2018-05-08T22:25:19.206Z,12.40
2018-05-08T22:27:47.649Z,12.50
2018-05-08T22:30:15.345Z,12.40
2018-05-08T22:32:43.821Z,12.50
2018-05-08T22:35:12.305Z,12.40
2018-05-08T22:37:40.751Z,12.40
2018-05-08T22:40:08.504Z,12.40
2018-05-08T22:42:36.206Z,12.30
2018-05-08T22:45:04.644Z,12.30
2018-05-08T22:47:32.345Z,12.30
2018-05-08T22:50:00.786Z,12.20
2018-05-08T22:52:28.459Z,12.10
2018-05-08T22:54:56.159Z,12.10
2018-05-08T22:57:24.605Z,12.00
2018-05-08T22:59:52.299Z,12.00
2018-05-08T23:02:20.769Z,11.90
2018-05-08T23:04:49.207Z,11.90
2018-05-08T23:07:16.922Z,11.90
2018-05-08T23:09:45.410Z,11.80
2018-05-08T23:12:13.110Z,11.70
2018-05-08T23:14:40.785Z,11.80
2018-05-08T23:17:08.489Z,11.70
2018-05-08T23:19:36.961Z,11.70
2018-05-08T23:22:05.404Z,11.70
2018-05-08T23:24:33.105Z,11.60
2018-05-08T23:27:01.548Z,11.80
2018-05-08T23:29:29.245Z,11.70
2018-05-08T23:31:57.713Z,11.80
2018-05-08T23:34:26.153Z,11.80
2018-05-08T23:36:53.853Z,11.80
2018-05-08T23:39:22.329Z,11.90
2018-05-08T23:41:50.796Z,11.90
2018-05-08T23:44:18.557Z,11.90
2018-05-08T23:46:46.285Z,12.00
2018-05-08T23:49:13.958Z,12.00
2018-05-08T23:51:41.629Z,12.00
2018-05-08T23:54:09.329Z,12.00
2018-05-08T23:56:37.764Z,12.00
2018-05-08T23:59:05.461Z,12.00
